Terminal Aerodrome Forecast
Issued by NWS New Orleans/Baton Rouge, LA

Home | Current Version | Previous Version | Text Only | Print | Product List | Glossary On
Versions: 1 2 3 4 5 6 7 8 9 10 11 12 13 14 15
000
FTUS44 KLIX 170500
TAFBTR
TAF
KBTR 170528Z 1706/1806 02003KT P6SM OVC006
     FM171100 00000KT P6SM SCT060
     FM171400 05005KT P6SM SCT040 PROB30 1717/1723 VRB15KT 1SM TSRA
      BR BKN025CB=

USA.gov is the U.S. government's official web portal to all federal, state and local government web resources and services.